sensor_id;sensor_type;location;lat;lon;timestamp;pressure;altitude;pressure_sealevel;temperature;humidity
65756;BME280;52489;47.502;18.940;2022-12-08T00:00:08;98047.88;;;-0.06;95.67
65756;BME280;52489;47.502;18.940;2022-12-08T00:01:16;98042.13;;;0.04;95.66
65756;BME280;52489;47.502;18.940;2022-12-08T00:02:19;98046.50;;;0.04;95.54
65756;BME280;52489;47.502;18.940;2022-12-08T00:03:22;98040.13;;;0.06;95.39
65756;BME280;52489;47.502;18.940;2022-12-08T00:04:25;98041.34;;;0.04;95.49
65756;BME280;52489;47.502;18.940;2022-12-08T00:05:28;98048.06;;;-0.07;95.70
65756;BME280;52489;47.502;18.940;2022-12-08T00:06:50;98047.41;;;-0.03;96.17
65756;BME280;52489;47.502;18.940;2022-12-08T00:08:12;98039.09;;;0.07;95.96
65756;BME280;52489;47.502;18.940;2022-12-08T00:09:36;98044.38;;;0.12;95.43
65756;BME280;52489;47.502;18.940;2022-12-08T00:10:44;98044.00;;;0.20;94.86
65756;BME280;52489;47.502;18.940;2022-12-08T00:11:54;98044.66;;;0.28;94.12
65756;BME280;52489;47.502;18.940;2022-12-08T00:12:57;98048.94;;;0.22;93.90
65756;BME280;52489;47.502;18.940;2022-12-08T00:14:00;98043.44;;;0.30;93.58
65756;BME280;52489;47.502;18.940;2022-12-08T00:15:03;98041.63;;;0.31;92.99
65756;BME280;52489;47.502;18.940;2022-12-08T00:16:07;98043.88;;;0.27;93.05
65756;BME280;52489;47.502;18.940;2022-12-08T00:17:12;98033.47;;;0.22;93.34
65756;BME280;52489;47.502;18.940;2022-12-08T00:18:15;98040.78;;;0.13;93.92
65756;BME280;52489;47.502;18.940;2022-12-08T00:19:18;98030.69;;;0.12;94.30
65756;BME280;52489;47.502;18.940;2022-12-08T00:20:21;98036.72;;;0.17;94.60
65756;BME280;52489;47.502;18.940;2022-12-08T00:21:24;98041.53;;;0.26;93.88
65756;BME280;52489;47.502;18.940;2022-12-08T00:22:26;98035.03;;;0.23;93.50
65756;BME280;52489;47.502;18.940;2022-12-08T00:23:30;98041.84;;;0.29;93.04
65756;BME280;52489;47.502;18.940;2022-12-08T00:24:38;98042.31;;;0.26;92.80
65756;BME280;52489;47.502;18.940;2022-12-08T00:25:41;98032.25;;;0.25;92.73
65756;BME280;52489;47.502;18.940;2022-12-08T00:26:44;98041.53;;;0.26;92.79
65756;BME280;52489;47.502;18.940;2022-12-08T00:27:46;98045.94;;;0.02;93.74
65756;BME280;52489;47.502;18.940;2022-12-08T00:28:49;98042.25;;;-0.03;94.75
65756;BME280;52489;47.502;18.940;2022-12-08T00:29:52;98037.56;;;0.06;94.39
65756;BME280;52489;47.502;18.940;2022-12-08T00:30:55;98043.56;;;0.12;94.55
65756;BME280;52489;47.502;18.940;2022-12-08T00:31:58;98043.94;;;0.04;94.99
65756;BME280;52489;47.502;18.940;2022-12-08T00:33:00;98041.69;;;0.07;95.03
65756;BME280;52489;47.502;18.940;2022-12-08T00:34:03;98036.84;;;0.11;94.77
65756;BME280;52489;47.502;18.940;2022-12-08T00:35:06;98040.56;;;0.03;95.26
65756;BME280;52489;47.502;18.940;2022-12-08T00:36:12;98041.66;;;0.19;95.04
65756;BME280;52489;47.502;18.940;2022-12-08T00:37:15;98043.31;;;0.25;94.84
65756;BME280;52489;47.502;18.940;2022-12-08T00:38:18;98043.09;;;0.27;94.45
65756;BME280;52489;47.502;18.940;2022-12-08T00:39:21;98043.75;;;0.34;94.25
65756;BME280;52489;47.502;18.940;2022-12-08T00:40:23;98044.34;;;0.24;94.37
65756;BME280;52489;47.502;18.940;2022-12-08T00:41:27;98053.53;;;0.20;95.17
65756;BME280;52489;47.502;18.940;2022-12-08T00:42:49;98046.69;;;0.14;95.56
65756;BME280;52489;47.502;18.940;2022-12-08T00:43:51;98049.59;;;0.17;95.83
65756;BME280;52489;47.502;18.940;2022-12-08T00:44:54;98047.38;;;0.21;95.82
65756;BME280;52489;47.502;18.940;2022-12-08T00:45:57;98044.34;;;0.24;95.62
65756;BME280;52489;47.502;18.940;2022-12-08T00:47:00;98054.19;;;0.27;95.56
65756;BME280;52489;47.502;18.940;2022-12-08T00:48:02;98046.34;;;0.22;95.71
65756;BME280;52489;47.502;18.940;2022-12-08T00:49:06;98050.81;;;0.27;95.80
65756;BME280;52489;47.502;18.940;2022-12-08T00:50:09;98051.81;;;0.37;95.77
65756;BME280;52489;47.502;18.940;2022-12-08T00:51:12;98049.44;;;0.48;94.90
65756;BME280;52489;47.502;18.940;2022-12-08T00:52:15;98044.41;;;0.41;94.94
65756;BME280;52489;47.502;18.940;2022-12-08T00:53:17;98045.41;;;0.40;95.24
65756;BME280;52489;47.502;18.940;2022-12-08T00:54:21;98050.13;;;0.43;95.14
65756;BME280;52489;47.502;18.940;2022-12-08T00:55:24;98054.69;;;0.41;95.13
65756;BME280;52489;47.502;18.940;2022-12-08T00:56:27;98049.09;;;0.44;95.05
65756;BME280;52489;47.502;18.940;2022-12-08T00:57:30;98046.62;;;0.49;95.09
65756;BME280;52489;47.502;18.940;2022-12-08T00:58:33;98053.25;;;0.45;94.65
65756;BME280;52489;47.502;18.940;2022-12-08T00:59:36;98056.59;;;0.45;94.92
65756;BME280;52489;47.502;18.940;2022-12-08T01:00:40;98054.59;;;0.48;94.91
65756;BME280;52489;47.502;18.940;2022-12-08T01:01:44;98053.44;;;0.55;94.48
65756;BME280;52489;47.502;18.940;2022-12-08T01:02:47;98055.38;;;0.48;94.34
65756;BME280;52489;47.502;18.940;2022-12-08T01:03:50;98049.78;;;0.39;94.61
65756;BME280;52489;47.502;18.940;2022-12-08T01:04:54;98057.66;;;0.33;94.62
65756;BME280;52489;47.502;18.940;2022-12-08T01:06:02;98052.25;;;0.34;94.69
65756;BME280;52489;47.502;18.940;2022-12-08T01:07:05;98055.16;;;0.38;94.58
65756;BME280;52489;47.502;18.940;2022-12-08T01:08:08;98056.50;;;0.40;94.62
65756;BME280;52489;47.502;18.940;2022-12-08T01:09:12;98056.28;;;0.42;94.00
65756;BME280;52489;47.502;18.940;2022-12-08T01:10:15;98055.59;;;0.47;94.08
65756;BME280;52489;47.502;18.940;2022-12-08T01:11:18;98055.38;;;0.48;93.97
65756;BME280;52489;47.502;18.940;2022-12-08T01:12:21;98055.84;;;0.45;93.44
65756;BME280;52489;47.502;18.940;2022-12-08T01:13:24;98052.78;;;0.48;93.64
65756;BME280;52489;47.502;18.940;2022-12-08T01:14:27;98059.81;;;0.53;93.00
65756;BME280;52489;47.502;18.940;2022-12-08T01:15:29;98046.47;;;0.56;92.66
65756;BME280;52489;47.502;18.940;2022-12-08T01:16:34;98051.06;;;0.65;91.93
65756;BME280;52489;47.502;18.940;2022-12-08T01:17:37;98048.53;;;0.54;92.23
65756;BME280;52489;47.502;18.940;2022-12-08T01:18:40;98041.25;;;0.51;92.52
65756;BME280;52489;47.502;18.940;2022-12-08T01:19:43;98044.16;;;0.54;92.05
65756;BME280;52489;47.502;18.940;2022-12-08T01:20:46;98051.09;;;0.54;91.80
65756;BME280;52489;47.502;18.940;2022-12-08T01:21:48;98053.31;;;0.50;91.74
65756;BME280;52489;47.502;18.940;2022-12-08T01:22:51;98050.53;;;0.52;91.80
65756;BME280;52489;47.502;18.940;2022-12-08T01:23:55;98044.38;;;0.53;91.42
65756;BME280;52489;47.502;18.940;2022-12-08T01:25:01;98047.22;;;0.39;91.56
65756;BME280;52489;47.502;18.940;2022-12-08T01:26:05;98047.31;;;0.44;91.47
65756;BME280;52489;47.502;18.940;2022-12-08T01:27:08;98047.06;;;0.46;90.88
65756;BME280;52489;47.502;18.940;2022-12-08T01:28:11;98045.31;;;0.35;91.24
65756;BME280;52489;47.502;18.940;2022-12-08T01:29:14;98046.19;;;0.40;91.14
65756;BME280;52489;47.502;18.940;2022-12-08T01:30:17;98046.91;;;0.24;91.26
65756;BME280;52489;47.502;18.940;2022-12-08T01:31:21;98053.31;;;0.21;91.50
65756;BME280;52489;47.502;18.940;2022-12-08T01:32:24;98047.00;;;0.29;91.28
65756;BME280;52489;47.502;18.940;2022-12-08T01:33:28;98052.06;;;0.24;90.98
65756;BME280;52489;47.502;18.940;2022-12-08T01:34:31;98047.59;;;0.19;91.23
65756;BME280;52489;47.502;18.940;2022-12-08T01:35:37;98050.03;;;0.26;90.84
65756;BME280;52489;47.502;18.940;2022-12-08T01:36:41;98041.09;;;0.17;91.21
65756;BME280;52489;47.502;18.940;2022-12-08T01:37:45;98039.88;;;0.08;91.73
65756;BME280;52489;47.502;18.940;2022-12-08T01:38:49;98051.66;;;0.04;91.87
65756;BME280;52489;47.502;18.940;2022-12-08T01:39:52;98040.47;;;-0.02;92.04
65756;BME280;52489;47.502;18.940;2022-12-08T01:40:55;98043.81;;;-0.02;91.90
65756;BME280;52489;47.502;18.940;2022-12-08T01:41:57;98041.87;;;0.06;91.66
65756;BME280;52489;47.502;18.940;2022-12-08T01:43:03;98040.59;;;-0.09;92.46
65756;BME280;52489;47.502;18.940;2022-12-08T01:45:25;98043.13;;;0.15;91.67
65756;BME280;52489;47.502;18.940;2022-12-08T01:46:30;98043.03;;;0.10;91.64
65756;BME280;52489;47.502;18.940;2022-12-08T01:47:40;98048.06;;;0.05;91.65
65756;BME280;52489;47.502;18.940;2022-12-08T01:48:44;98046.25;;;0.05;91.86
65756;BME280;52489;47.502;18.940;2022-12-08T01:49:47;98039.56;;;0.04;92.07
65756;BME280;52489;47.502;18.940;2022-12-08T01:50:50;98038.22;;;0.02;91.75
65756;BME280;52489;47.502;18.940;2022-12-08T01:52:12;98037.09;;;-0.03;92.00
65756;BME280;52489;47.502;18.940;2022-12-08T01:53:21;98038.34;;;-0.05;92.01
65756;BME280;52489;47.502;18.940;2022-12-08T01:54:28;98035.88;;;-0.12;92.35
65756;BME280;52489;47.502;18.940;2022-12-08T01:55:45;98036.56;;;-0.16;92.71
65756;BME280;52489;47.502;18.940;2022-12-08T01:57:02;98034.75;;;-0.04;92.71
65756;BME280;52489;47.502;18.940;2022-12-08T01:58:12;98033.19;;;-0.05;92.68
65756;BME280;52489;47.502;18.940;2022-12-08T01:59:17;98034.09;;;-0.11;92.81
65756;BME280;52489;47.502;18.940;2022-12-08T02:00:21;98032.63;;;-0.07;92.30
65756;BME280;52489;47.502;18.940;2022-12-08T02:01:24;98037.00;;;-0.08;92.50
65756;BME280;52489;47.502;18.940;2022-12-08T02:02:35;98034.19;;;-0.06;92.36
65756;BME280;52489;47.502;18.940;2022-12-08T02:03:59;98036.88;;;-0.13;92.35
65756;BME280;52489;47.502;18.940;2022-12-08T02:05:02;98037.66;;;-0.12;92.46
65756;BME280;52489;47.502;18.940;2022-12-08T02:06:05;98035.09;;;-0.12;92.58
65756;BME280;52489;47.502;18.940;2022-12-08T02:07:09;98023.56;;;-0.10;92.56
65756;BME280;52489;47.502;18.940;2022-12-08T02:08:13;98032.75;;;-0.02;92.20
65756;BME280;52489;47.502;18.940;2022-12-08T02:09:18;98029.72;;;-0.11;92.24
65756;BME280;52489;47.502;18.940;2022-12-08T02:10:23;98031.84;;;-0.19;93.19
65756;BME280;52489;47.502;18.940;2022-12-08T02:11:26;98030.06;;;-0.19;93.41
65756;BME280;52489;47.502;18.940;2022-12-08T02:12:29;98018.22;;;-0.20;93.69
65756;BME280;52489;47.502;18.940;2022-12-08T02:13:31;98026.47;;;-0.18;93.40
65756;BME280;52489;47.502;18.940;2022-12-08T02:14:34;98012.72;;;-0.24;93.45
65756;BME280;52489;47.502;18.940;2022-12-08T02:16:48;98018.66;;;-0.23;93.66
65756;BME280;52489;47.502;18.940;2022-12-08T02:18:26;98017.75;;;-0.17;93.47
65756;BME280;52489;47.502;18.940;2022-12-08T02:21:05;98013.19;;;0.26;92.04
65756;BME280;52489;47.502;18.940;2022-12-08T02:22:11;98018.03;;;0.10;92.69
65756;BME280;52489;47.502;18.940;2022-12-08T02:28:01;98019.75;;;-0.07;91.57
65756;BME280;52489;47.502;18.940;2022-12-08T02:36:16;98013.59;;;-0.06;93.10
65756;BME280;52489;47.502;18.940;2022-12-08T02:37:29;98007.00;;;-0.14;93.75
65756;BME280;52489;47.502;18.940;2022-12-08T02:38:36;98010.34;;;-0.02;93.66
65756;BME280;52489;47.502;18.940;2022-12-08T02:39:52;98007.75;;;0.10;93.62
65756;BME280;52489;47.502;18.940;2022-12-08T02:41:23;98002.16;;;0.02;94.20
65756;BME280;52489;47.502;18.940;2022-12-08T02:42:31;98006.84;;;0.05;94.86
65756;BME280;52489;47.502;18.940;2022-12-08T02:43:59;98004.16;;;-0.01;95.20
65756;BME280;52489;47.502;18.940;2022-12-08T02:45:12;98000.81;;;-0.01;95.35
65756;BME280;52489;47.502;18.940;2022-12-08T02:46:21;98007.09;;;0.03;95.58
65756;BME280;52489;47.502;18.940;2022-12-08T02:47:27;98003.37;;;0.11;95.55
65756;BME280;52489;47.502;18.940;2022-12-08T02:48:32;98005.72;;;0.12;95.57
65756;BME280;52489;47.502;18.940;2022-12-08T02:49:35;98007.41;;;0.07;95.94
65756;BME280;52489;47.502;18.940;2022-12-08T02:50:38;98012.13;;;0.10;95.94
65756;BME280;52489;47.502;18.940;2022-12-08T02:51:41;98006.50;;;0.13;96.01
65756;BME280;52489;47.502;18.940;2022-12-08T02:52:45;98005.69;;;0.24;95.91
65756;BME280;52489;47.502;18.940;2022-12-08T02:53:50;97992.69;;;0.31;95.53
65756;BME280;52489;47.502;18.940;2022-12-08T02:54:56;97992.44;;;0.32;95.29
65756;BME280;52489;47.502;18.940;2022-12-08T02:57:42;98000.12;;;0.44;94.87
65756;BME280;52489;47.502;18.940;2022-12-08T02:59:47;97994.91;;;0.39;94.94
65756;BME280;52489;47.502;18.940;2022-12-08T03:00:20;97996.87;;;0.49;94.63
65756;BME280;52489;47.502;18.940;2022-12-08T03:01:54;97997.91;;;0.48;94.15
65756;BME280;52489;47.502;18.940;2022-12-08T03:08:14;97986.72;;;0.42;95.09
65756;BME280;52489;47.502;18.940;2022-12-08T03:09:33;97987.94;;;0.39;95.33
65756;BME280;52489;47.502;18.940;2022-12-08T03:11:02;97988.72;;;0.40;95.98
65756;BME280;52489;47.502;18.940;2022-12-08T03:13:37;97985.69;;;0.43;96.15
65756;BME280;52489;47.502;18.940;2022-12-08T03:14:49;97981.31;;;0.43;96.40
65756;BME280;52489;47.502;18.940;2022-12-08T03:15:54;97992.28;;;0.51;96.29
65756;BME280;52489;47.502;18.940;2022-12-08T03:16:59;97985.00;;;0.48;96.44
65756;BME280;52489;47.502;18.940;2022-12-08T03:18:03;97987.84;;;0.63;95.97
65756;BME280;52489;47.502;18.940;2022-12-08T03:19:12;97993.31;;;0.66;96.09
65756;BME280;52489;47.502;18.940;2022-12-08T03:20:19;97989.19;;;0.65;96.15
65756;BME280;52489;47.502;18.940;2022-12-08T03:21:23;97986.19;;;0.57;96.20
65756;BME280;52489;47.502;18.940;2022-12-08T03:22:27;97982.28;;;0.54;96.48
65756;BME280;52489;47.502;18.940;2022-12-08T03:23:31;97983.28;;;0.53;96.57
65756;BME280;52489;47.502;18.940;2022-12-08T03:24:40;97987.84;;;0.63;96.70
65756;BME280;52489;47.502;18.940;2022-12-08T03:26:07;97987.06;;;0.62;96.44
65756;BME280;52489;47.502;18.940;2022-12-08T03:27:18;97987.84;;;0.63;96.54
65756;BME280;52489;47.502;18.940;2022-12-08T03:28:23;97988.84;;;0.62;96.60
65756;BME280;52489;47.502;18.940;2022-12-08T03:29:26;97983.00;;;0.66;96.55
65756;BME280;52489;47.502;18.940;2022-12-08T03:30:31;97988.00;;;0.73;96.20
65756;BME280;52489;47.502;18.940;2022-12-08T03:31:41;97989.97;;;0.66;96.34
65756;BME280;52489;47.502;18.940;2022-12-08T03:32:54;97985.81;;;0.65;96.55
65756;BME280;52489;47.502;18.940;2022-12-08T03:34:00;97989.25;;;0.71;96.45
65756;BME280;52489;47.502;18.940;2022-12-08T03:35:08;97979.44;;;0.84;96.23
65756;BME280;52489;47.502;18.940;2022-12-08T03:36:13;97977.31;;;0.81;95.67
65756;BME280;52489;47.502;18.940;2022-12-08T03:37:17;97985.28;;;0.80;95.82
65756;BME280;52489;47.502;18.940;2022-12-08T03:38:20;97990.69;;;0.78;95.91
65756;BME280;52489;47.502;18.940;2022-12-08T03:39:23;97977.53;;;0.80;95.87
65756;BME280;52489;47.502;18.940;2022-12-08T03:40:26;97980.78;;;0.87;95.58
65756;BME280;52489;47.502;18.940;2022-12-08T03:41:29;97978.97;;;0.87;95.47
65756;BME280;52489;47.502;18.940;2022-12-08T03:42:32;97983.75;;;0.96;95.06
65756;BME280;52489;47.502;18.940;2022-12-08T03:43:35;97978.75;;;0.89;95.12
65756;BME280;52489;47.502;18.940;2022-12-08T03:44:38;97977.94;;;0.88;95.33
65756;BME280;52489;47.502;18.940;2022-12-08T03:45:41;97977.94;;;0.88;95.44
65756;BME280;52489;47.502;18.940;2022-12-08T03:46:44;97979.22;;;0.86;95.54
65756;BME280;52489;47.502;18.940;2022-12-08T03:47:47;97979.59;;;0.95;95.64
65756;BME280;52489;47.502;18.940;2022-12-08T03:48:50;97976.88;;;1.01;95.09
65756;BME280;52489;47.502;18.940;2022-12-08T03:49:53;97991.81;;;0.99;94.96
65756;BME280;52489;47.502;18.940;2022-12-08T03:50:56;97982.41;;;0.93;95.29
65756;BME280;52489;47.502;18.940;2022-12-08T03:51:59;97980.78;;;0.87;95.47
65756;BME280;52489;47.502;18.940;2022-12-08T03:53:02;97979.22;;;0.86;95.46
65756;BME280;52489;47.502;18.940;2022-12-08T03:54:05;97972.47;;;0.85;95.63
65756;BME280;52489;47.502;18.940;2022-12-08T03:55:08;97974.91;;;0.91;95.67
65756;BME280;52489;47.502;18.940;2022-12-08T03:56:26;97968.19;;;0.90;95.59
65756;BME280;52489;47.502;18.940;2022-12-08T03:57:33;97969.75;;;0.91;95.33
65756;BME280;52489;47.502;18.940;2022-12-08T03:58:36;97969.22;;;0.89;95.47
65756;BME280;52489;47.502;18.940;2022-12-08T03:59:39;97979.06;;;0.93;95.54
65756;BME280;52489;47.502;18.940;2022-12-08T04:00:42;97971.63;;;0.96;95.48
65756;BME280;52489;47.502;18.940;2022-12-08T04:01:45;97967.41;;;0.90;95.30
65756;BME280;52489;47.502;18.940;2022-12-08T04:02:48;97971.94;;;0.83;95.69
65756;BME280;52489;47.502;18.940;2022-12-08T04:03:52;97974.59;;;0.88;95.80
65756;BME280;52489;47.502;18.940;2022-12-08T04:04:55;97967.25;;;0.97;95.49
65756;BME280;52489;47.502;18.940;2022-12-08T04:05:58;97976.16;;;1.06;95.11
65756;BME280;52489;47.502;18.940;2022-12-08T04:07:01;97971.94;;;1.00;95.06
65756;BME280;52489;47.502;18.940;2022-12-08T04:08:04;97975.56;;;1.16;94.50
65756;BME280;52489;47.502;18.940;2022-12-08T04:09:07;97975.63;;;1.04;94.48
65756;BME280;52489;47.502;18.940;2022-12-08T04:10:15;97970.94;;;1.01;94.97
65756;BME280;52489;47.502;18.940;2022-12-08T04:11:19;97967.97;;;1.09;94.54
65756;BME280;52489;47.502;18.940;2022-12-08T04:12:22;97967.44;;;1.07;94.46
65756;BME280;52489;47.502;18.940;2022-12-08T04:13:25;97966.87;;;1.05;94.60
65756;BME280;52489;47.502;18.940;2022-12-08T04:14:27;97966.78;;;1.00;94.68
65756;BME280;52489;47.502;18.940;2022-12-08T04:15:30;97962.31;;;1.12;94.48
65756;BME280;52489;47.502;18.940;2022-12-08T04:16:33;97965.63;;;1.24;93.98
65756;BME280;52489;47.502;18.940;2022-12-08T04:17:37;97955.22;;;1.19;93.84
65756;BME280;52489;47.502;18.940;2022-12-08T04:18:39;97961.38;;;1.18;93.91
65756;BME280;52489;47.502;18.940;2022-12-08T04:19:43;97960.47;;;1.24;93.98
65756;BME280;52489;47.502;18.940;2022-12-08T04:20:46;97956.22;;;1.18;93.97
65756;BME280;52489;47.502;18.940;2022-12-08T04:21:48;97956.84;;;1.25;93.87
65756;BME280;52489;47.502;18.940;2022-12-08T04:22:51;97956.84;;;1.25;93.79
65756;BME280;52489;47.502;18.940;2022-12-08T04:23:54;97955.53;;;1.23;93.81
65756;BME280;52489;47.502;18.940;2022-12-08T04:25:02;97957.16;;;1.12;94.36
65756;BME280;52489;47.502;18.940;2022-12-08T04:26:05;97955.63;;;1.11;94.70
65756;BME280;52489;47.502;18.940;2022-12-08T04:27:08;97949.81;;;1.21;94.25
65756;BME280;52489;47.502;18.940;2022-12-08T04:28:11;97953.72;;;1.23;93.93
65756;BME280;52489;47.502;18.940;2022-12-08T04:29:15;97949.19;;;1.13;94.25
65756;BME280;52489;47.502;18.940;2022-12-08T04:30:18;97953.50;;;1.08;94.53
65756;BME280;52489;47.502;18.940;2022-12-08T04:31:21;97945.75;;;1.08;94.58
65756;BME280;52489;47.502;18.940;2022-12-08T04:32:24;97952.34;;;0.99;94.93
65756;BME280;52489;47.502;18.940;2022-12-08T04:33:27;97955.22;;;1.02;95.24
65756;BME280;52489;47.502;18.940;2022-12-08T04:34:30;97952.72;;;1.07;95.03
65756;BME280;52489;47.502;18.940;2022-12-08T04:35:33;97950.59;;;1.21;94.86
65756;BME280;52489;47.502;18.940;2022-12-08T04:36:36;97952.78;;;1.29;94.23
65756;BME280;52489;47.502;18.940;2022-12-08T04:37:39;97953.63;;;1.35;93.95
65756;BME280;52489;47.502;18.940;2022-12-08T04:38:42;97955.66;;;1.33;93.81
65756;BME280;52489;47.502;18.940;2022-12-08T04:39:45;97955.75;;;1.21;94.19
65756;BME280;52489;47.502;18.940;2022-12-08T04:40:48;97955.84;;;1.26;94.10
65756;BME280;52489;47.502;18.940;2022-12-08T04:41:51;97951.63;;;1.20;94.15
65756;BME280;52489;47.502;18.940;2022-12-08T04:42:54;97958.66;;;1.25;94.19
65756;BME280;52489;47.502;18.940;2022-12-08T04:43:57;97952.81;;;1.12;94.55
65756;BME280;52489;47.502;18.940;2022-12-08T04:45:00;97954.84;;;1.10;95.14
65756;BME280;52489;47.502;18.940;2022-12-08T04:46:07;97950.06;;;1.02;95.26
65756;BME280;52489;47.502;18.940;2022-12-08T04:47:10;97950.06;;;1.19;95.17
65756;BME280;52489;47.502;18.940;2022-12-08T04:48:14;97956.47;;;1.17;94.99
65756;BME280;52489;47.502;18.940;2022-12-08T04:49:17;97947.00;;;1.05;95.31
65756;BME280;52489;47.502;18.940;2022-12-08T04:50:20;97958.66;;;1.08;95.47
65756;BME280;52489;47.502;18.940;2022-12-08T04:51:23;97954.06;;;1.10;95.54
65756;BME280;52489;47.502;18.940;2022-12-08T04:52:26;97958.09;;;1.06;95.70
65756;BME280;52489;47.502;18.940;2022-12-08T04:53:29;97949.59;;;1.05;95.72
65756;BME280;52489;47.502;18.940;2022-12-08T04:54:32;97948.72;;;1.00;96.04
65756;BME280;52489;47.502;18.940;2022-12-08T04:55:38;97956.25;;;1.01;96.28
65756;BME280;52489;47.502;18.940;2022-12-08T04:56:42;97954.91;;;0.99;96.41
65756;BME280;52489;47.502;18.940;2022-12-08T04:57:44;97954.53;;;1.07;96.40
65756;BME280;52489;47.502;18.940;2022-12-08T04:58:47;97954.84;;;1.10;95.96
65756;BME280;52489;47.502;18.940;2022-12-08T04:59:50;97950.44;;;1.11;95.96
65756;BME280;52489;47.502;18.940;2022-12-08T05:00:54;97950.44;;;1.11;96.00
65756;BME280;52489;47.502;18.940;2022-12-08T05:01:56;97950.75;;;1.14;95.97
65756;BME280;52489;47.502;18.940;2022-12-08T05:03:00;97958.87;;;1.23;95.70
65756;BME280;52489;47.502;18.940;2022-12-08T05:04:03;97947.88;;;1.28;95.35
65756;BME280;52489;47.502;18.940;2022-12-08T05:05:06;97952.56;;;1.31;95.05
65756;BME280;52489;47.502;18.940;2022-12-08T05:06:12;97958.41;;;1.26;95.21
65756;BME280;52489;47.502;18.940;2022-12-08T05:07:15;97951.31;;;1.33;95.15
65756;BME280;52489;47.502;18.940;2022-12-08T05:08:18;97950.66;;;1.26;95.04
65756;BME280;52489;47.502;18.940;2022-12-08T05:09:22;97946.25;;;1.22;95.28
65756;BME280;52489;47.502;18.940;2022-12-08T05:10:25;97953.19;;;1.04;95.83
65756;BME280;52489;47.502;18.940;2022-12-08T05:11:28;97956.16;;;1.13;95.96
65756;BME280;52489;47.502;18.940;2022-12-08T05:12:31;97952.41;;;1.21;95.25
65756;BME280;52489;47.502;18.940;2022-12-08T05:13:34;97947.72;;;1.18;95.37
65756;BME280;52489;47.502;18.940;2022-12-08T05:14:37;97958.03;;;1.34;94.54
65756;BME280;52489;47.502;18.940;2022-12-08T05:15:40;97958.87;;;1.23;94.88
65756;BME280;52489;47.502;18.940;2022-12-08T05:16:44;97957.56;;;1.21;95.00
65756;BME280;52489;47.502;18.940;2022-12-08T05:17:47;97956.09;;;1.25;94.77
65756;BME280;52489;47.502;18.940;2022-12-08T05:18:50;97963.34;;;1.28;94.50
65756;BME280;52489;47.502;18.940;2022-12-08T05:19:53;97953.34;;;1.31;94.43
65756;BME280;52489;47.502;18.940;2022-12-08T05:20:56;97958.09;;;1.40;94.12
65756;BME280;52489;47.502;18.940;2022-12-08T05:21:59;97958.31;;;1.38;93.57
65756;BME280;52489;47.502;18.940;2022-12-08T05:23:02;97964.81;;;1.41;93.51
65756;BME280;52489;47.502;18.940;2022-12-08T05:24:05;97957.63;;;1.43;93.46
65756;BME280;52489;47.502;18.940;2022-12-08T05:25:08;97955.09;;;1.48;93.06
65756;BME280;52489;47.502;18.940;2022-12-08T05:26:12;97956.59;;;1.44;93.66
65756;BME280;52489;47.502;18.940;2022-12-08T05:27:15;97958.31;;;1.38;93.72
65756;BME280;52489;47.502;18.940;2022-12-08T05:28:18;97951.59;;;1.37;93.60
65756;BME280;52489;47.502;18.940;2022-12-08T05:29:41;97950.50;;;1.33;93.80
65756;BME280;52489;47.502;18.940;2022-12-08T05:30:44;97952.47;;;1.43;93.49
65756;BME280;52489;47.502;18.940;2022-12-08T05:31:47;97955.53;;;1.40;93.59
65756;BME280;52489;47.502;18.940;2022-12-08T05:32:50;97949.13;;;1.25;94.22
65756;BME280;52489;47.502;18.940;2022-12-08T05:33:53;97941.22;;;1.32;94.52
65756;BME280;52489;47.502;18.940;2022-12-08T05:35:02;97938.72;;;1.37;94.24
65756;BME280;52489;47.502;18.940;2022-12-08T05:36:05;97943.13;;;1.42;94.09
65756;BME280;52489;47.502;18.940;2022-12-08T05:37:09;97945.97;;;1.40;93.94
65756;BME280;52489;47.502;18.940;2022-12-08T05:38:12;97942.75;;;1.50;93.82
65756;BME280;52489;47.502;18.940;2022-12-08T05:39:15;97944.16;;;1.41;93.72
65756;BME280;52489;47.502;18.940;2022-12-08T05:40:18;97937.44;;;1.40;93.82
65756;BME280;52489;47.502;18.940;2022-12-08T05:41:21;97934.78;;;1.34;94.04
65756;BME280;52489;47.502;18.940;2022-12-08T05:42:24;97930.38;;;1.52;93.73
65756;BME280;52489;47.502;18.940;2022-12-08T05:43:27;97935.16;;;1.43;93.60
65756;BME280;52489;47.502;18.940;2022-12-08T05:44:30;97930.22;;;1.42;94.05
65756;BME280;52489;47.502;18.940;2022-12-08T05:45:33;97923.91;;;1.49;93.44
65756;BME280;52489;47.502;18.940;2022-12-08T05:46:36;97932.03;;;1.41;93.63
65756;BME280;52489;47.502;18.940;2022-12-08T05:47:39;97931.25;;;1.41;93.82
65756;BME280;52489;47.502;18.940;2022-12-08T05:48:42;97926.41;;;1.44;93.80
65756;BME280;52489;47.502;18.940;2022-12-08T05:49:45;97932.59;;;1.43;93.60
65756;BME280;52489;47.502;18.940;2022-12-08T05:50:49;97932.97;;;1.52;93.44
65756;BME280;52489;47.502;18.940;2022-12-08T05:51:52;97936.41;;;1.57;92.99
65756;BME280;52489;47.502;18.940;2022-12-08T05:52:54;97938.13;;;1.52;92.92
65756;BME280;52489;47.502;18.940;2022-12-08T05:53:57;97936.13;;;1.37;93.47
65756;BME280;52489;47.502;18.940;2022-12-08T05:55:01;97943.22;;;1.30;93.89
65756;BME280;52489;47.502;18.940;2022-12-08T05:56:04;97940.34;;;1.26;94.19
65756;BME280;52489;47.502;18.940;2022-12-08T05:57:13;97939.00;;;1.41;94.07
65756;BME280;52489;47.502;18.940;2022-12-08T05:58:18;97939.94;;;1.51;93.46
65756;BME280;52489;47.502;18.940;2022-12-08T05:59:22;97940.72;;;1.35;93.53
65756;BME280;52489;47.502;18.940;2022-12-08T06:00:25;97937.38;;;1.34;93.97
65756;BME280;52489;47.502;18.940;2022-12-08T06:01:30;97943.09;;;1.36;93.98
65756;BME280;52489;47.502;18.940;2022-12-08T06:02:33;97935.09;;;1.38;94.08
65756;BME280;52489;47.502;18.940;2022-12-08T06:03:37;97941.13;;;1.27;94.23
65756;BME280;52489;47.502;18.940;2022-12-08T06:04:40;97939.28;;;1.22;94.79
65756;BME280;52489;47.502;18.940;2022-12-08T06:05:45;97939.75;;;1.19;94.96
65756;BME280;52489;47.502;18.940;2022-12-08T06:06:48;97940.53;;;1.20;95.07
65756;BME280;52489;47.502;18.940;2022-12-08T06:07:51;97950.53;;;1.16;95.18
65756;BME280;52489;47.502;18.940;2022-12-08T06:08:54;97954.34;;;1.30;94.89